KAFK

Nebraska City Municipal Airport

Nebraska City, Nebraska, USA
METAR KAFK 181115Z AUTO 19005KT 10SM CLR 23/22 A2994 RMK AO2 T02330222
Observed Flight Rules
Jun-18 @ 11:15 UTC (12 minutes ago) Visual Flight Rules
Wind Visibility Clouds
190° at 5 knots 10 miles
  • Clear skies
Temperatures Readings
Current 23°C / 73°F
Dewpoint 22°C / 72°F
Humidity 94%
Altimeter 29.94" Hg
Pressure 1014 hPa
Elevation 354
METAR KAFK 181115Z AUTO 19005KT 10SM CLR 23/22 A2994 RMK AO2 T02330222
Observed Flight Rules
Jun-18 @ 11:15 UTC
(12 minutes ago)
VFR
Wind Visibility
190° at 5 knots 10 miles
Clouds
  • Clear skies
Temperature Dewpoint
23°C / 73°F 22°C / 72°F
Humidity Altimeter Pressure
94% 29.94" Hg 1014 hPa